createdAt,value
2018-09-12T00:00:40.170Z,18.82
2018-09-12T00:01:40.188Z,18.74
2018-09-12T00:02:40.124Z,18.78
2018-09-12T00:03:40.602Z,18.78
2018-09-12T00:04:40.080Z,18.79
2018-09-12T00:05:40.098Z,18.75
2018-09-12T00:06:40.549Z,18.81
2018-09-12T00:07:40.008Z,18.79
2018-09-12T00:08:40.106Z,18.81
2018-09-12T00:09:39.982Z,18.65
2018-09-12T00:10:39.930Z,18.78
2018-09-12T00:11:39.910Z,18.65
2018-09-12T00:12:40.555Z,18.65
2018-09-12T00:13:40.125Z,18.66
2018-09-12T00:14:40.553Z,18.63
2018-09-12T00:15:40.586Z,18.57
2018-09-12T00:16:40.551Z,18.63
2018-09-12T00:17:40.570Z,18.57
2018-09-12T00:18:39.784Z,18.51
2018-09-12T00:19:40.564Z,18.53
2018-09-12T00:20:39.696Z,18.41
2018-09-12T00:21:40.557Z,18.39
2018-09-12T00:22:39.641Z,18.31
2018-09-12T00:23:39.670Z,18.36
2018-09-12T00:24:39.630Z,18.36
2018-09-12T00:25:39.569Z,18.32
2018-09-12T00:26:40.062Z,18.23
2018-09-12T00:27:39.557Z,18.17
2018-09-12T00:28:39.646Z,18.29
2018-09-12T00:29:40.464Z,18.24
2018-09-12T00:30:39.445Z,18.20
2018-09-12T00:31:40.060Z,18.20
2018-09-12T00:32:39.421Z,18.20
2018-09-12T00:33:39.382Z,18.11
2018-09-12T00:34:39.618Z,18.05
2018-09-12T00:35:40.064Z,18.10
2018-09-12T00:36:40.060Z,18.03
2018-09-12T00:37:40.060Z,18.03
2018-09-12T00:38:39.250Z,17.99
2018-09-12T00:39:39.287Z,17.98
2018-09-12T00:40:40.060Z,17.90
2018-09-12T00:41:40.072Z,17.86
2018-09-12T00:42:40.059Z,17.80
2018-09-12T00:43:39.126Z,17.77
2018-09-12T00:44:39.160Z,17.68
2018-09-12T00:45:40.073Z,17.65
2018-09-12T00:46:39.054Z,17.73
2018-09-12T00:47:39.562Z,17.74
2018-09-12T00:48:39.003Z,17.79
2018-09-12T00:49:39.111Z,17.76
2018-09-12T00:50:39.565Z,17.84
2018-09-12T00:51:39.576Z,17.83
2018-09-12T00:52:38.912Z,17.76
2018-09-12T00:53:39.576Z,17.79
2018-09-12T00:54:38.904Z,17.74
2018-09-12T00:55:39.118Z,17.73
2018-09-12T00:56:38.805Z,17.68
2018-09-12T00:57:38.782Z,17.68
2018-09-12T00:58:38.760Z,17.63
2018-09-12T00:59:39.568Z,17.60
2018-09-12T01:00:38.752Z,17.73
2018-09-12T01:01:39.573Z,17.63
2018-09-12T01:02:38.656Z,17.66
2018-09-12T01:03:38.634Z,17.69
2018-09-12T01:04:39.565Z,17.77
2018-09-12T01:05:39.120Z,17.81
2018-09-12T01:06:38.620Z,17.81
2018-09-12T01:07:39.069Z,17.86
2018-09-12T01:08:38.509Z,17.83
2018-09-12T01:09:38.487Z,17.86
2018-09-12T01:10:38.456Z,17.83
2018-09-12T01:11:38.630Z,17.87
2018-09-12T01:12:38.412Z,17.90
2018-09-12T01:13:39.070Z,17.81
2018-09-12T01:14:39.067Z,17.94
2018-09-12T01:15:39.067Z,17.94
2018-09-12T01:16:38.351Z,18.03
2018-09-12T01:17:38.290Z,18.01
2018-09-12T01:18:39.067Z,17.99
2018-09-12T01:19:39.071Z,18.03
2018-09-12T01:20:38.208Z,18.10
2018-09-12T01:21:38.223Z,18.10
2018-09-12T01:22:39.136Z,18.10
2018-09-12T01:23:38.136Z,18.10
2018-09-12T01:24:39.076Z,18.05
2018-09-12T01:25:39.075Z,18.10
2018-09-12T01:26:38.059Z,18.10
2018-09-12T01:27:38.118Z,18.16
2018-09-12T01:28:38.126Z,18.10
2018-09-12T01:29:38.581Z,18.10
2018-09-12T01:30:37.961Z,18.13
2018-09-12T01:31:37.936Z,18.03
2018-09-12T01:32:38.571Z,18.06
2018-09-12T01:33:38.133Z,18.05
2018-09-12T01:34:38.570Z,18.10
2018-09-12T01:35:38.573Z,18.05
2018-09-12T01:36:38.573Z,18.03
2018-09-12T01:37:37.829Z,18.08
2018-09-12T01:38:37.809Z,18.03
2018-09-12T01:39:38.588Z,18.05
2018-09-12T01:40:37.708Z,18.06
2018-09-12T01:41:37.686Z,18.06
2018-09-12T01:42:37.664Z,18.03
2018-09-12T01:43:38.135Z,18.02
2018-09-12T01:44:37.611Z,18.05
2018-09-12T01:45:38.581Z,18.01
2018-09-12T01:46:37.585Z,18.02
2018-09-12T01:47:38.073Z,17.96
2018-09-12T01:48:37.631Z,18.03
2018-09-12T01:49:37.531Z,18.01
2018-09-12T01:50:37.466Z,18.05
2018-09-12T01:51:38.077Z,18.02
2018-09-12T01:52:38.077Z,18.03
2018-09-12T01:53:37.985Z,18.03
2018-09-12T01:54:37.645Z,18.06
2018-09-12T01:55:37.353Z,18.03
2018-09-12T01:56:37.320Z,18.08
2018-09-12T01:57:37.292Z,18.08
2018-09-12T01:58:37.270Z,18.03
2018-09-12T01:59:37.602Z,18.11
2018-09-12T02:00:37.219Z,18.10
2018-09-12T02:01:37.194Z,18.08
2018-09-12T02:02:38.100Z,18.06
2018-09-12T02:03:37.145Z,18.05
2018-09-12T02:04:37.627Z,18.08
2018-09-12T02:05:38.079Z,18.01
2018-09-12T02:06:37.580Z,18.05
2018-09-12T02:07:37.589Z,18.02
2018-09-12T02:08:37.588Z,18.03
2018-09-12T02:09:37.049Z,18.08
2018-09-12T02:10:37.587Z,18.02
2018-09-12T02:11:36.942Z,18.08
2018-09-12T02:12:37.579Z,18.02
2018-09-12T02:13:37.584Z,18.06
2018-09-12T02:14:37.128Z,18.03
2018-09-12T02:15:37.137Z,18.08
2018-09-12T02:16:36.847Z,18.06
2018-09-12T02:17:37.585Z,18.10
2018-09-12T02:18:37.582Z,18.06
2018-09-12T02:19:37.136Z,18.10
2018-09-12T02:20:37.581Z,18.08
2018-09-12T02:21:37.598Z,18.06
2018-09-12T02:22:36.667Z,18.01
2018-09-12T02:23:36.695Z,18.06
2018-09-12T02:24:37.586Z,18.01
2018-09-12T02:25:36.597Z,18.01
2018-09-12T02:26:36.650Z,17.96
2018-09-12T02:27:36.546Z,18.03
2018-09-12T02:28:36.520Z,18.03
2018-09-12T02:29:36.494Z,18.01
2018-09-12T02:30:36.516Z,18.03
2018-09-12T02:31:37.086Z,18.02
2018-09-12T02:32:36.421Z,18.05
2018-09-12T02:33:36.640Z,18.11
2018-09-12T02:34:37.084Z,18.10
2018-09-12T02:35:36.349Z,18.05
2018-09-12T02:36:36.646Z,18.06
2018-09-12T02:37:36.296Z,18.01
2018-09-12T02:38:36.644Z,18.11
2018-09-12T02:39:36.250Z,18.06
2018-09-12T02:40:36.644Z,18.06
2018-09-12T02:41:36.237Z,18.03
2018-09-12T02:42:37.087Z,18.03
2018-09-12T02:43:36.195Z,17.98
2018-09-12T02:44:37.092Z,17.99
2018-09-12T02:45:36.140Z,17.96
2018-09-12T02:46:36.587Z,18.02
2018-09-12T02:47:36.054Z,18.01
2018-09-12T02:48:36.588Z,18.05
2018-09-12T02:49:36.129Z,18.08
2018-09-12T02:50:36.591Z,17.99
2018-09-12T02:51:36.596Z,18.01
2018-09-12T02:52:36.146Z,18.01
2018-09-12T02:53:36.596Z,18.06
2018-09-12T02:54:35.879Z,17.98
2018-09-12T02:55:36.148Z,18.01
2018-09-12T02:56:36.591Z,17.96
2018-09-12T02:57:35.848Z,17.98
2018-09-12T02:58:36.597Z,17.98
2018-09-12T02:59:36.592Z,17.98
2018-09-12T03:00:35.723Z,17.87
2018-09-12T03:01:35.745Z,17.92
2018-09-12T03:02:36.592Z,17.88
2018-09-12T03:03:35.649Z,17.94
2018-09-12T03:04:35.633Z,17.94
2018-09-12T03:05:35.598Z,17.90
2018-09-12T03:06:35.648Z,17.94
2018-09-12T03:07:36.096Z,17.98
2018-09-12T03:08:35.520Z,17.99
2018-09-12T03:09:36.095Z,18.08
2018-09-12T03:10:35.532Z,18.06
2018-09-12T03:11:36.093Z,18.05
2018-09-12T03:12:35.445Z,18.03
2018-09-12T03:13:36.097Z,17.99
2018-09-12T03:14:36.100Z,18.01
2018-09-12T03:15:35.395Z,17.94
2018-09-12T03:16:36.099Z,17.88
2018-09-12T03:17:35.651Z,17.84
2018-09-12T03:18:35.278Z,17.77
2018-09-12T03:19:36.099Z,17.83
2018-09-12T03:20:35.319Z,17.86
2018-09-12T03:21:35.198Z,17.83
2018-09-12T03:22:35.218Z,17.87
2018-09-12T03:23:35.164Z,17.88
2018-09-12T03:24:35.124Z,17.94
2018-09-12T03:25:35.153Z,17.84
2018-09-12T03:26:35.635Z,17.80
2018-09-12T03:27:35.104Z,17.84
2018-09-12T03:28:35.023Z,17.86
2018-09-12T03:29:35.598Z,17.86
2018-09-12T03:30:35.599Z,17.88
2018-09-12T03:31:35.158Z,17.81
2018-09-12T03:32:35.601Z,17.79
2018-09-12T03:33:35.599Z,17.83
2018-09-12T03:34:35.605Z,17.83
2018-09-12T03:35:34.888Z,17.77
2018-09-12T03:36:34.829Z,17.83
2018-09-12T03:37:35.155Z,17.96
2018-09-12T03:38:35.621Z,18.01
2018-09-12T03:39:34.749Z,17.86
2018-09-12T03:40:35.600Z,17.94
2018-09-12T03:41:34.699Z,17.94
2018-09-12T03:42:34.723Z,17.95
2018-09-12T03:43:35.169Z,18.01
2018-09-12T03:44:35.619Z,18.02
2018-09-12T03:45:34.598Z,17.94
2018-09-12T03:46:35.108Z,17.94
2018-09-12T03:47:35.110Z,17.90
2018-09-12T03:48:34.572Z,17.87
2018-09-12T03:49:34.498Z,17.87
2018-09-12T03:50:35.110Z,17.83
2018-09-12T03:51:35.102Z,17.81
2018-09-12T03:52:34.470Z,17.83
2018-09-12T03:53:34.399Z,17.84
2018-09-12T03:54:34.421Z,17.74
2018-09-12T03:55:35.105Z,17.76
2018-09-12T03:56:36.013Z,17.58
2018-09-12T03:57:34.666Z,17.66
2018-09-12T03:58:35.111Z,17.58
2018-09-12T03:59:34.667Z,17.52
2018-09-12T04:00:35.110Z,17.50
2018-09-12T04:01:35.109Z,17.52
2018-09-12T04:02:35.125Z,17.46
2018-09-12T04:03:34.150Z,17.49
2018-09-12T04:04:34.177Z,17.46
2018-09-12T04:05:34.107Z,17.45
2018-09-12T04:06:34.605Z,17.42
2018-09-12T04:07:34.050Z,17.39
2018-09-12T04:08:34.033Z,17.36
2018-09-12T04:09:34.163Z,17.40
2018-09-12T04:10:33.975Z,17.28
2018-09-12T04:11:33.948Z,17.30
2018-09-12T04:12:33.925Z,17.27
2018-09-12T04:13:33.897Z,17.24
2018-09-12T04:14:33.916Z,17.30
2018-09-12T04:15:33.851Z,17.27
2018-09-12T04:16:34.168Z,17.24
2018-09-12T04:17:34.610Z,17.24
2018-09-12T04:18:34.611Z,17.20
2018-09-12T04:19:33.787Z,17.10
2018-09-12T04:20:33.722Z,17.18
2018-09-12T04:21:33.745Z,17.17
2018-09-12T04:22:33.678Z,17.13
2018-09-12T04:23:33.700Z,17.13
2018-09-12T04:24:33.622Z,17.06
2018-09-12T04:25:33.595Z,17.09
2018-09-12T04:26:33.575Z,17.15
2018-09-12T04:27:33.591Z,17.12
2018-09-12T04:28:33.523Z,17.12
2018-09-12T04:29:33.501Z,17.09
2018-09-12T04:30:33.474Z,17.07
2018-09-12T04:31:33.451Z,17.05
2018-09-12T04:32:33.667Z,17.06
2018-09-12T04:33:33.420Z,17.05
2018-09-12T04:34:33.371Z,16.95
2018-09-12T04:35:33.345Z,16.92
2018-09-12T04:36:33.318Z,17.02
2018-09-12T04:37:33.349Z,16.87
2018-09-12T04:38:33.281Z,16.92
2018-09-12T04:39:33.239Z,16.88
2018-09-12T04:40:33.219Z,16.87
2018-09-12T04:41:33.192Z,16.91
2018-09-12T04:42:33.268Z,16.91
2018-09-12T04:43:33.154Z,16.90
2018-09-12T04:44:33.117Z,16.94
2018-09-12T04:45:33.100Z,16.84
2018-09-12T04:46:33.107Z,16.88
2018-09-12T04:47:33.091Z,16.92
2018-09-12T04:48:33.106Z,16.90
2018-09-12T04:49:33.052Z,16.85
2018-09-12T04:50:32.968Z,16.92
2018-09-12T04:51:32.946Z,16.90
2018-09-12T04:52:33.651Z,16.95
2018-09-12T04:53:32.905Z,16.91
2018-09-12T04:54:32.970Z,16.92
2018-09-12T04:55:32.837Z,16.85
2018-09-12T04:56:33.628Z,17.03
2018-09-12T04:57:32.838Z,16.97
2018-09-12T04:58:32.769Z,16.95
2018-09-12T04:59:32.752Z,16.94
2018-09-12T05:00:32.712Z,16.92
2018-09-12T05:01:32.684Z,17.03
2018-09-12T05:02:32.704Z,16.99
2018-09-12T05:03:32.638Z,17.00
2018-09-12T05:04:32.613Z,17.02
2018-09-12T05:05:32.584Z,17.05
2018-09-12T05:06:32.597Z,17.07
2018-09-12T05:07:32.531Z,17.10
2018-09-12T05:08:32.506Z,17.02
2018-09-12T05:09:32.479Z,17.03
2018-09-12T05:10:32.454Z,17.07
2018-09-12T05:11:32.476Z,17.07
2018-09-12T05:12:32.402Z,17.15
2018-09-12T05:13:32.433Z,17.06
2018-09-12T05:14:32.352Z,17.05
2018-09-12T05:15:32.330Z,17.18
2018-09-12T05:16:32.391Z,17.15
2018-09-12T05:17:32.277Z,17.18
2018-09-12T05:18:32.304Z,17.13
2018-09-12T05:19:32.227Z,17.24
2018-09-12T05:20:32.202Z,17.27
2018-09-12T05:21:32.205Z,17.27
2018-09-12T05:22:32.149Z,17.38
2018-09-12T05:23:32.192Z,17.40
2018-09-12T05:24:32.100Z,17.42
2018-09-12T05:25:32.077Z,17.45
2018-09-12T05:26:32.057Z,17.45
2018-09-12T05:27:32.027Z,17.49
2018-09-12T05:28:32.051Z,17.62
2018-09-12T05:29:31.972Z,17.66
2018-09-12T05:30:31.992Z,17.69
2018-09-12T05:31:31.967Z,17.58
2018-09-12T05:32:31.898Z,17.77
2018-09-12T05:33:31.873Z,17.87
2018-09-12T05:34:31.895Z,17.80
2018-09-12T05:35:31.823Z,17.87
2018-09-12T05:36:31.800Z,17.86
2018-09-12T05:37:31.774Z,17.90
2018-09-12T05:38:32.176Z,17.90
2018-09-12T05:39:31.770Z,17.99
2018-09-12T05:40:31.700Z,18.03
2018-09-12T05:41:31.674Z,18.13
2018-09-12T05:42:31.649Z,18.06
2018-09-12T05:43:31.627Z,18.10
2018-09-12T05:44:31.646Z,18.16
2018-09-12T05:45:31.575Z,18.23
2018-09-12T05:46:31.550Z,18.23
2018-09-12T05:47:31.539Z,18.31
2018-09-12T05:48:31.497Z,18.42
2018-09-12T05:49:31.528Z,18.39
2018-09-12T05:50:31.453Z,18.35
2018-09-12T05:51:31.427Z,18.39
2018-09-12T05:52:31.438Z,18.39
2018-09-12T05:53:31.440Z,18.45
2018-09-12T05:54:31.361Z,18.53
2018-09-12T05:55:31.338Z,18.50
2018-09-12T05:56:31.307Z,18.47
2018-09-12T05:57:31.278Z,18.51
2018-09-12T05:58:31.304Z,18.50
2018-09-12T05:59:31.248Z,18.50
2018-09-12T06:00:31.202Z,18.60
2018-09-12T06:01:31.192Z,18.60
2018-09-12T06:02:31.157Z,18.69
2018-09-12T06:03:31.195Z,18.66
2018-09-12T06:04:31.143Z,18.68
2018-09-12T06:05:31.146Z,18.71
2018-09-12T06:06:32.730Z,18.71
2018-09-12T06:07:31.647Z,18.72
2018-09-12T06:08:31.054Z,18.75
2018-09-12T06:09:31.012Z,18.79
2018-09-12T06:10:31.195Z,18.81
2018-09-12T06:11:30.942Z,18.81
2018-09-12T06:12:31.634Z,18.87
2018-09-12T06:13:30.931Z,18.90
2018-09-12T06:14:30.867Z,19.06
2018-09-12T06:15:30.886Z,19.07
2018-09-12T06:16:30.831Z,19.06
2018-09-12T06:17:30.791Z,19.15
2018-09-12T06:18:30.811Z,19.16
2018-09-12T06:19:30.750Z,19.25
2018-09-12T06:20:30.721Z,19.31
2018-09-12T06:21:31.195Z,19.30
2018-09-12T06:22:31.639Z,19.38
2018-09-12T06:23:31.652Z,19.32
2018-09-12T06:24:31.144Z,19.37
2018-09-12T06:25:30.603Z,19.42
2018-09-12T06:26:30.696Z,19.46
2018-09-12T06:27:31.158Z,19.46
2018-09-12T06:28:30.532Z,19.49
2018-09-12T06:29:30.504Z,19.53
2018-09-12T06:30:30.480Z,19.52
2018-09-12T06:31:30.506Z,19.60
2018-09-12T06:32:30.431Z,19.67
2018-09-12T06:33:30.409Z,19.67
2018-09-12T06:34:30.394Z,19.74
2018-09-12T06:35:30.369Z,19.80
2018-09-12T06:36:30.698Z,19.82
2018-09-12T06:37:30.360Z,19.83
2018-09-12T06:38:30.421Z,19.97
2018-09-12T06:39:30.268Z,20.01
2018-09-12T06:40:30.256Z,20.04
2018-09-12T06:41:31.181Z,19.97
2018-09-12T06:42:30.251Z,20.10
2018-09-12T06:43:30.174Z,20.16
2018-09-12T06:44:30.164Z,20.22
2018-09-12T06:45:30.130Z,20.25
2018-09-12T06:46:30.108Z,20.30
2018-09-12T06:47:30.136Z,20.48
2018-09-12T06:48:30.070Z,20.49
2018-09-12T06:49:30.806Z,20.44
2018-09-12T06:50:30.196Z,20.61
2018-09-12T06:51:30.643Z,20.63
2018-09-12T06:52:29.963Z,20.66
2018-09-12T06:53:30.001Z,20.67
2018-09-12T06:54:29.948Z,20.74
2018-09-12T06:55:29.954Z,20.81
2018-09-12T06:56:29.871Z,20.90
2018-09-12T06:57:29.975Z,20.85
2018-09-12T06:58:29.833Z,20.88
2018-09-12T06:59:29.807Z,20.96
2018-09-12T07:00:29.843Z,21.01
2018-09-12T07:01:29.799Z,21.08
2018-09-12T07:02:29.739Z,21.09
2018-09-12T07:03:29.715Z,21.18
2018-09-12T07:04:29.699Z,21.18
2018-09-12T07:05:30.653Z,21.21
2018-09-12T07:06:29.687Z,21.18
2018-09-12T07:07:29.654Z,21.18
2018-09-12T07:08:29.600Z,21.19
2018-09-12T07:09:29.580Z,21.30
2018-09-12T07:10:29.575Z,21.33
2018-09-12T07:11:29.715Z,21.40
2018-09-12T07:12:29.524Z,21.46
2018-09-12T07:13:29.484Z,21.41
2018-09-12T07:14:29.464Z,21.45
2018-09-12T07:15:29.706Z,21.48
2018-09-12T07:16:29.437Z,21.53
2018-09-12T07:17:30.168Z,21.61
2018-09-12T07:18:29.419Z,21.62
2018-09-12T07:19:29.354Z,21.76
2018-09-12T07:20:29.431Z,21.74
2018-09-12T07:21:29.317Z,21.68
2018-09-12T07:22:29.295Z,21.82
2018-09-12T07:23:29.265Z,21.80
2018-09-12T07:24:30.267Z,21.94
2018-09-12T07:25:29.710Z,21.85
2018-09-12T07:26:29.194Z,21.94
2018-09-12T07:27:29.177Z,21.93
2018-09-12T07:28:29.655Z,21.92
2018-09-12T07:29:29.215Z,22.08
2018-09-12T07:30:29.178Z,22.09
2018-09-12T07:31:29.654Z,22.09
2018-09-12T07:32:29.653Z,22.22
2018-09-12T07:33:29.653Z,22.20
2018-09-12T07:34:29.074Z,22.18
2018-09-12T07:35:28.997Z,22.26
2018-09-12T07:36:28.985Z,22.18
2018-09-12T07:37:28.961Z,22.26
2018-09-12T07:38:28.933Z,22.24
2018-09-12T07:39:28.960Z,22.23
2018-09-12T07:40:29.673Z,22.31
2018-09-12T07:41:28.891Z,22.30
2018-09-12T07:42:28.856Z,22.36
2018-09-12T07:43:28.826Z,22.38
2018-09-12T07:44:28.843Z,22.52
2018-09-12T07:45:28.780Z,22.46
2018-09-12T07:46:28.804Z,22.46
2018-09-12T07:47:28.741Z,22.49
2018-09-12T07:48:28.715Z,22.59
2018-09-12T07:49:29.659Z,22.60
2018-09-12T07:50:29.441Z,22.64
2018-09-12T07:51:29.162Z,22.71
2018-09-12T07:52:28.632Z,22.79
2018-09-12T07:53:28.610Z,22.75
2018-09-12T07:54:28.585Z,22.84
2018-09-12T07:55:28.640Z,22.79
2018-09-12T07:56:28.606Z,22.86
2018-09-12T07:57:28.520Z,22.91
2018-09-12T07:58:28.499Z,22.97
2018-09-12T07:59:28.484Z,23.07
2018-09-12T08:00:28.808Z,23.22
2018-09-12T08:01:28.434Z,23.25
2018-09-12T08:02:28.416Z,23.32
2018-09-12T08:03:28.394Z,23.28
2018-09-12T08:04:28.370Z,23.19
2018-09-12T08:05:28.722Z,23.28
2018-09-12T08:06:29.163Z,23.44
2018-09-12T08:07:28.313Z,23.42
2018-09-12T08:08:28.286Z,23.52
2018-09-12T08:09:28.276Z,23.57
2018-09-12T08:10:28.290Z,23.59
2018-09-12T08:11:28.275Z,23.75
2018-09-12T08:12:28.227Z,23.72
2018-09-12T08:13:28.182Z,23.77
2018-09-12T08:14:28.165Z,23.82
2018-09-12T08:15:28.187Z,23.82
2018-09-12T08:16:28.178Z,23.90
2018-09-12T08:17:28.097Z,23.92
2018-09-12T08:18:28.081Z,23.93
2018-09-12T08:19:28.217Z,24.03
2018-09-12T08:20:28.037Z,24.00
2018-09-12T08:21:28.016Z,24.04
2018-09-12T08:22:27.999Z,24.11
2018-09-12T08:23:27.976Z,24.19
2018-09-12T08:24:28.223Z,24.26
2018-09-12T08:25:28.671Z,24.33
2018-09-12T08:26:27.962Z,24.33
2018-09-12T08:27:29.578Z,24.51
2018-09-12T08:28:27.873Z,24.56
2018-09-12T08:29:27.911Z,24.70
2018-09-12T08:30:27.839Z,24.80
2018-09-12T08:31:27.815Z,24.87
2018-09-12T08:32:27.793Z,25.01
2018-09-12T08:33:27.774Z,25.08
2018-09-12T08:34:27.793Z,25.23
2018-09-12T08:35:27.734Z,25.39
2018-09-12T08:36:27.779Z,25.49
2018-09-12T08:37:27.696Z,25.57
2018-09-12T08:38:27.676Z,25.56
2018-09-12T08:39:27.660Z,25.67
2018-09-12T08:40:27.646Z,25.78
2018-09-12T08:41:27.666Z,25.76
2018-09-12T08:42:27.656Z,25.84
2018-09-12T08:43:27.580Z,25.82
2018-09-12T08:44:27.565Z,25.96
2018-09-12T08:45:27.541Z,25.84
2018-09-12T08:46:27.522Z,25.94
2018-09-12T08:47:27.541Z,25.86
2018-09-12T08:48:27.487Z,26.00
2018-09-12T08:49:27.513Z,25.94
2018-09-12T08:50:27.476Z,25.96
2018-09-12T08:51:27.478Z,25.93
2018-09-12T08:52:27.409Z,25.91
2018-09-12T08:53:27.392Z,25.97
2018-09-12T08:54:27.413Z,25.93
2018-09-12T08:55:27.353Z,26.09
2018-09-12T08:56:27.374Z,26.04
2018-09-12T08:57:27.321Z,26.04
2018-09-12T08:58:27.301Z,26.17
2018-09-12T08:59:27.319Z,26.26
2018-09-12T09:00:27.340Z,26.32
2018-09-12T09:01:27.302Z,26.41
2018-09-12T09:02:27.263Z,26.41
2018-09-12T09:03:28.182Z,26.50
2018-09-12T09:04:27.182Z,26.63
2018-09-12T09:05:27.163Z,26.69
2018-09-12T09:06:27.161Z,26.71
2018-09-12T09:07:27.171Z,26.74
2018-09-12T09:08:27.684Z,26.75
2018-09-12T09:09:27.136Z,26.86
2018-09-12T09:10:27.106Z,26.91
2018-09-12T09:11:27.060Z,27.01
2018-09-12T09:12:27.043Z,27.01
2018-09-12T09:13:27.015Z,27.08
2018-09-12T09:14:27.043Z,27.11
2018-09-12T09:15:26.991Z,27.09
2018-09-12T09:16:26.963Z,26.89
2018-09-12T09:17:27.750Z,26.86
2018-09-12T09:18:26.928Z,26.97
2018-09-12T09:19:26.946Z,27.06
2018-09-12T09:20:26.892Z,27.06
2018-09-12T09:21:26.871Z,27.09
2018-09-12T09:22:26.854Z,27.23
2018-09-12T09:23:26.843Z,27.27
2018-09-12T09:24:26.863Z,27.33
2018-09-12T09:25:26.802Z,27.31
2018-09-12T09:26:26.783Z,27.31
2018-09-12T09:27:26.763Z,27.38
2018-09-12T09:28:27.691Z,27.34
2018-09-12T09:29:26.834Z,27.37
2018-09-12T09:30:26.712Z,27.30
2018-09-12T09:31:26.739Z,27.36
2018-09-12T09:32:26.675Z,27.52
2018-09-12T09:33:26.665Z,27.51
2018-09-12T09:34:26.643Z,27.49
2018-09-12T09:35:26.715Z,27.57
2018-09-12T09:36:26.646Z,27.66
2018-09-12T09:37:26.594Z,27.71
2018-09-12T09:38:26.575Z,27.75
2018-09-12T09:39:27.197Z,27.68
2018-09-12T09:40:26.887Z,27.68
2018-09-12T09:41:27.212Z,27.76
2018-09-12T09:42:27.196Z,27.84
2018-09-12T09:43:26.495Z,27.87
2018-09-12T09:44:26.469Z,27.91
2018-09-12T09:45:26.778Z,28.02
2018-09-12T09:46:26.486Z,27.99
2018-09-12T09:47:26.415Z,28.09
2018-09-12T09:48:26.485Z,28.02
2018-09-12T09:49:26.384Z,28.11
2018-09-12T09:50:26.363Z,28.03
2018-09-12T09:51:26.397Z,28.05
2018-09-12T09:52:26.352Z,28.01
2018-09-12T09:53:26.312Z,27.96
2018-09-12T09:54:26.293Z,28.01
2018-09-12T09:55:26.291Z,28.01
2018-09-12T09:56:26.314Z,27.98
2018-09-12T09:57:26.250Z,28.06
2018-09-12T09:58:26.250Z,28.02
2018-09-12T09:59:26.217Z,28.08
2018-09-12T10:00:26.265Z,28.01
2018-09-12T10:01:26.218Z,28.01
2018-09-12T10:02:26.157Z,28.02
2018-09-12T10:03:26.195Z,28.01
2018-09-12T10:04:26.122Z,27.83
2018-09-12T10:05:26.163Z,27.87
2018-09-12T10:06:26.088Z,27.80
2018-09-12T10:07:26.072Z,27.76
2018-09-12T10:08:26.097Z,27.53
2018-09-12T10:09:26.037Z,27.51
2018-09-12T10:10:26.033Z,27.53
2018-09-12T10:11:26.005Z,27.55
2018-09-12T10:12:25.993Z,27.53
2018-09-12T10:13:26.018Z,27.31
2018-09-12T10:14:25.973Z,27.28
2018-09-12T10:15:25.977Z,27.30
2018-09-12T10:16:25.916Z,27.28
2018-09-12T10:17:25.910Z,27.19
2018-09-12T10:18:25.884Z,27.05
2018-09-12T10:19:25.871Z,26.99
2018-09-12T10:20:25.895Z,26.99
2018-09-12T10:21:25.823Z,27.00
2018-09-12T10:22:25.864Z,26.90
2018-09-12T10:23:25.791Z,26.91
2018-09-12T10:24:25.875Z,26.93
2018-09-12T10:25:25.756Z,26.86
2018-09-12T10:26:25.732Z,26.89
2018-09-12T10:27:25.713Z,26.84
2018-09-12T10:28:25.705Z,26.84
2018-09-12T10:29:25.745Z,26.69
2018-09-12T10:30:25.659Z,26.79
2018-09-12T10:31:25.638Z,26.75
2018-09-12T10:32:25.669Z,26.63
2018-09-12T10:33:25.605Z,26.61
2018-09-12T10:34:25.583Z,26.52
2018-09-12T10:35:25.608Z,26.54
2018-09-12T10:36:26.211Z,26.52
2018-09-12T10:37:25.571Z,26.45
2018-09-12T10:38:25.508Z,26.44
2018-09-12T10:39:25.510Z,26.30
2018-09-12T10:40:25.476Z,26.30
2018-09-12T10:41:25.460Z,26.31
2018-09-12T10:42:25.475Z,26.37
2018-09-12T10:43:25.415Z,26.26
2018-09-12T10:44:25.395Z,26.24
2018-09-12T10:45:25.380Z,26.35
2018-09-12T10:46:25.360Z,26.32
2018-09-12T10:47:25.378Z,26.35
2018-09-12T10:48:25.332Z,26.32
2018-09-12T10:49:25.319Z,26.44
2018-09-12T10:50:25.768Z,26.38
2018-09-12T10:51:25.261Z,26.50
2018-09-12T10:52:25.279Z,26.50
2018-09-12T10:53:26.224Z,26.56
2018-09-12T10:54:25.250Z,26.68
2018-09-12T10:55:25.209Z,26.64
2018-09-12T10:56:25.211Z,26.74
2018-09-12T10:57:25.143Z,26.76
2018-09-12T10:58:25.125Z,26.82
2018-09-12T10:59:25.165Z,26.86
2018-09-12T11:00:25.089Z,26.96
2018-09-12T11:01:25.070Z,27.04
2018-09-12T11:02:25.050Z,27.11
2018-09-12T11:03:25.031Z,27.16
2018-09-12T11:04:25.149Z,27.09
2018-09-12T11:05:24.996Z,27.08
2018-09-12T11:06:25.285Z,27.04
2018-09-12T11:07:24.960Z,27.12
2018-09-12T11:08:24.940Z,26.99
2018-09-12T11:09:24.918Z,26.94
2018-09-12T11:10:24.917Z,26.96
2018-09-12T11:11:24.927Z,27.12
2018-09-12T11:12:24.861Z,27.11
2018-09-12T11:13:24.843Z,27.06
2018-09-12T11:14:24.823Z,27.13
2018-09-12T11:15:24.860Z,27.11
2018-09-12T11:16:24.830Z,27.09
2018-09-12T11:17:24.799Z,27.09
2018-09-12T11:18:24.815Z,27.06
2018-09-12T11:19:24.733Z,26.93
2018-09-12T11:20:24.754Z,27.05
2018-09-12T11:21:24.697Z,26.93
2018-09-12T11:22:24.677Z,26.90
2018-09-12T11:23:24.693Z,26.79
2018-09-12T11:24:25.233Z,26.74
2018-09-12T11:25:24.663Z,26.75
2018-09-12T11:26:24.599Z,26.78
2018-09-12T11:27:24.595Z,26.71
2018-09-12T11:28:24.562Z,26.76
2018-09-12T11:29:24.589Z,26.72
2018-09-12T11:30:24.592Z,26.75
2018-09-12T11:31:24.532Z,26.75
2018-09-12T11:32:24.488Z,26.79
2018-09-12T11:33:24.465Z,26.87
2018-09-12T11:34:24.552Z,26.82
2018-09-12T11:35:24.477Z,26.89
2018-09-12T11:36:24.407Z,26.96
2018-09-12T11:37:25.193Z,26.93
2018-09-12T11:38:24.371Z,27.01
2018-09-12T11:39:24.398Z,26.93
2018-09-12T11:40:24.332Z,27.09
2018-09-12T11:41:24.361Z,27.15
2018-09-12T11:42:24.351Z,27.15
2018-09-12T11:43:24.289Z,27.12
2018-09-12T11:44:24.263Z,27.18
2018-09-12T11:45:24.238Z,27.30
2018-09-12T11:46:24.274Z,27.34
2018-09-12T11:47:24.202Z,27.28
2018-09-12T11:48:24.186Z,27.31
2018-09-12T11:49:24.166Z,27.34
2018-09-12T11:50:24.194Z,27.42
2018-09-12T11:51:24.133Z,27.36
2018-09-12T11:52:24.153Z,27.52
2018-09-12T11:53:24.091Z,27.52
2018-09-12T11:54:24.073Z,27.45
2018-09-12T11:55:24.138Z,27.59
2018-09-12T11:56:24.032Z,27.59
2018-09-12T11:57:24.075Z,27.51
2018-09-12T11:58:23.990Z,27.53
2018-09-12T11:59:23.999Z,27.46
2018-09-12T12:00:24.019Z,27.52
2018-09-12T12:01:23.939Z,27.61
2018-09-12T12:02:23.945Z,27.51
2018-09-12T12:03:23.899Z,27.66
2018-09-12T12:04:23.883Z,27.61
2018-09-12T12:05:23.918Z,27.65
2018-09-12T12:06:23.843Z,27.66
2018-09-12T12:07:24.741Z,27.66
2018-09-12T12:08:23.823Z,27.80
2018-09-12T12:09:23.789Z,27.66
2018-09-12T12:10:23.811Z,27.80
2018-09-12T12:11:23.793Z,27.86
2018-09-12T12:12:23.777Z,27.93
2018-09-12T12:13:23.717Z,27.94
2018-09-12T12:14:23.729Z,27.93
2018-09-12T12:15:23.730Z,27.99
2018-09-12T12:16:24.258Z,27.94
2018-09-12T12:17:23.810Z,28.01
2018-09-12T12:18:24.248Z,27.93
2018-09-12T12:19:23.604Z,27.98
2018-09-12T12:20:23.592Z,27.99
2018-09-12T12:21:23.572Z,27.93
2018-09-12T12:22:23.591Z,27.96
2018-09-12T12:23:23.533Z,28.01
2018-09-12T12:24:23.531Z,27.98
2018-09-12T12:25:23.497Z,28.06
2018-09-12T12:26:23.477Z,28.09
2018-09-12T12:27:23.529Z,28.06
2018-09-12T12:28:23.446Z,28.08
2018-09-12T12:29:23.805Z,28.16
2018-09-12T12:30:23.407Z,28.11
2018-09-12T12:31:24.157Z,28.09
2018-09-12T12:32:23.373Z,28.01
2018-09-12T12:33:23.352Z,27.94
2018-09-12T12:34:23.371Z,28.01
2018-09-12T12:35:23.387Z,28.11
2018-09-12T12:36:23.298Z,28.08
2018-09-12T12:37:23.277Z,28.05
2018-09-12T12:38:23.261Z,28.05
2018-09-12T12:39:23.242Z,28.03
2018-09-12T12:40:23.270Z,28.09
2018-09-12T12:41:23.816Z,28.09
2018-09-12T12:42:23.193Z,28.09
2018-09-12T12:43:23.213Z,28.16
2018-09-12T12:44:23.151Z,28.16
2018-09-12T12:45:23.140Z,28.12
2018-09-12T12:46:23.156Z,28.09
2018-09-12T12:47:23.104Z,28.23
2018-09-12T12:48:23.077Z,28.05
2018-09-12T12:49:23.102Z,28.14
2018-09-12T12:50:23.048Z,28.08
2018-09-12T12:51:23.072Z,28.05
2018-09-12T12:52:23.005Z,28.03